createdAt,value
2022-08-16T00:02:34.754Z,17.16
2022-08-16T00:05:06.176Z,17.17
2022-08-16T00:07:35.764Z,17.10
2022-08-16T00:10:07.309Z,17.08
2022-08-16T00:12:41.802Z,17.07
2022-08-16T00:15:17.339Z,17.03
2022-08-16T00:17:56.838Z,16.97
2022-08-16T00:20:27.231Z,16.95
2022-08-16T00:22:56.385Z,16.91
2022-08-16T00:26:33.720Z,16.88
2022-08-16T00:28:16.769Z,16.90
2022-08-16T00:30:45.715Z,16.88
2022-08-16T00:33:16.143Z,16.86
2022-08-16T00:35:46.104Z,16.84
2022-08-16T00:38:40.833Z,16.79
2022-08-16T00:41:08.657Z,16.87
2022-08-16T00:43:43.725Z,16.94
2022-08-16T00:46:22.385Z,16.91
2022-08-16T00:49:05.494Z,16.91
2022-08-16T00:51:34.797Z,16.89
2022-08-16T00:54:07.893Z,16.91
2022-08-16T00:56:57.741Z,16.93
2022-08-16T00:59:34.308Z,16.90
2022-08-16T01:02:21.688Z,16.80
2022-08-16T01:05:04.627Z,16.76
2022-08-16T01:07:51.227Z,16.70
2022-08-16T01:10:31.863Z,16.70
2022-08-16T01:13:07.872Z,16.73
2022-08-16T01:15:43.386Z,16.76
2022-08-16T01:18:40.618Z,16.76
2022-08-16T01:21:16.784Z,16.78
2022-08-16T01:24:44.606Z,16.77
2022-08-16T01:27:08.756Z,16.74
2022-08-16T01:29:58.409Z,16.70
2022-08-16T01:32:33.426Z,16.67
2022-08-16T01:35:07.637Z,16.64
2022-08-16T01:37:43.109Z,16.62
2022-08-16T01:40:18.528Z,16.63
2022-08-16T01:42:49.782Z,16.59
2022-08-16T01:45:24.174Z,16.59
2022-08-16T01:48:19.608Z,16.60
2022-08-16T01:51:09.711Z,16.54
2022-08-16T01:53:42.714Z,16.52
2022-08-16T01:56:30.158Z,16.47
2022-08-16T01:59:02.790Z,16.44
2022-08-16T02:01:34.018Z,16.43
2022-08-16T02:04:10.970Z,16.43
2022-08-16T02:06:46.636Z,16.47
2022-08-16T02:09:18.220Z,16.43
2022-08-16T02:11:57.751Z,16.53
2022-08-16T02:14:29.832Z,16.78
2022-08-16T02:17:03.422Z,16.91
2022-08-16T02:19:58.744Z,17.36
2022-08-16T02:22:36.786Z,18.03
2022-08-16T02:25:10.494Z,18.51
2022-08-16T02:27:42.761Z,19.00
2022-08-16T02:30:36.539Z,19.38
2022-08-16T02:33:07.574Z,19.54
2022-08-16T02:35:49.805Z,20.16
2022-08-16T02:38:26.392Z,20.58
2022-08-16T02:40:56.592Z,21.15
2022-08-16T02:43:29.172Z,20.68
2022-08-16T02:46:07.535Z,19.89
2022-08-16T02:48:39.693Z,19.22
2022-08-16T02:51:19.289Z,19.08
2022-08-16T02:53:53.417Z,18.72
2022-08-16T02:56:25.434Z,18.61
2022-08-16T02:59:03.558Z,18.73
2022-08-16T03:01:41.759Z,18.91
2022-08-16T03:04:51.945Z,18.99
2022-08-16T03:07:27.543Z,18.93
2022-08-16T03:10:00.234Z,18.86
2022-08-16T03:12:37.894Z,18.88
2022-08-16T03:15:22.966Z,18.89
2022-08-16T03:17:54.223Z,18.77
2022-08-16T03:20:32.434Z,18.43
2022-08-16T03:23:05.253Z,18.24
2022-08-16T03:25:44.331Z,18.29
2022-08-16T03:28:17.082Z,18.37
2022-08-16T03:30:49.061Z,18.54
2022-08-16T03:33:19.298Z,18.76
2022-08-16T03:36:30.349Z,18.72
2022-08-16T03:38:54.273Z,18.73
2022-08-16T03:41:29.477Z,18.78
2022-08-16T03:44:44.734Z,18.72
2022-08-16T03:47:10.385Z,18.80
2022-08-16T03:49:41.079Z,19.11
2022-08-16T03:52:13.596Z,19.30
2022-08-16T03:54:53.419Z,19.23
2022-08-16T03:57:31.817Z,19.09
2022-08-16T04:00:35.464Z,19.16
2022-08-16T04:03:08.530Z,19.03
2022-08-16T04:05:44.423Z,18.75
2022-08-16T04:08:23.036Z,18.61
2022-08-16T04:10:57.859Z,18.67
2022-08-16T04:14:00.625Z,18.75
2022-08-16T04:16:27.446Z,18.67
2022-08-16T04:19:05.625Z,18.79
2022-08-16T04:21:46.027Z,18.77
2022-08-16T04:24:18.315Z,18.81
2022-08-16T04:26:48.874Z,18.82
2022-08-16T04:29:24.509Z,18.95
2022-08-16T04:31:58.218Z,19.04
2022-08-16T04:34:37.287Z,19.15
2022-08-16T04:37:08.174Z,18.98
2022-08-16T04:39:47.437Z,19.19
2022-08-16T04:42:29.846Z,19.39
2022-08-16T04:45:05.628Z,19.52
2022-08-16T04:47:36.668Z,19.48
2022-08-16T04:50:17.980Z,19.70
2022-08-16T04:53:23.006Z,19.98
2022-08-16T04:55:55.950Z,20.06
2022-08-16T04:58:38.426Z,20.17
2022-08-16T05:01:15.242Z,20.22
2022-08-16T05:03:59.640Z,20.44
2022-08-16T05:06:44.666Z,20.53
2022-08-16T05:09:23.228Z,20.72
2022-08-16T05:11:57.370Z,20.81
2022-08-16T05:14:45.847Z,20.90
2022-08-16T05:17:25.877Z,20.97
2022-08-16T05:19:59.349Z,21.14
2022-08-16T05:22:39.853Z,21.20
2022-08-16T05:25:17.296Z,21.38
2022-08-16T05:27:52.845Z,21.46
2022-08-16T05:30:34.608Z,21.72
2022-08-16T05:33:16.333Z,21.90
2022-08-16T05:35:55.621Z,22.18
2022-08-16T05:38:49.596Z,22.49
2022-08-16T05:41:20.004Z,22.55
2022-08-16T05:43:52.468Z,22.75
2022-08-16T05:46:43.804Z,22.90
2022-08-16T05:49:22.344Z,23.01
2022-08-16T05:51:55.703Z,23.19
2022-08-16T05:54:28.559Z,23.43
2022-08-16T05:57:02.396Z,23.64
2022-08-16T05:59:33.536Z,23.77
2022-08-16T06:02:03.036Z,23.81
2022-08-16T06:04:37.954Z,23.79
2022-08-16T06:07:26.173Z,23.96
2022-08-16T06:10:09.780Z,24.19
2022-08-16T06:12:41.108Z,24.20
2022-08-16T06:15:14.938Z,24.24
2022-08-16T06:17:51.707Z,24.41
2022-08-16T06:20:35.488Z,24.52
2022-08-16T06:23:26.940Z,24.72
2022-08-16T06:26:07.673Z,24.80
2022-08-16T06:28:42.033Z,24.85
2022-08-16T06:31:24.725Z,25.04
2022-08-16T06:33:56.414Z,25.18
2022-08-16T06:36:26.790Z,25.22
2022-08-16T06:39:16.432Z,25.38
2022-08-16T06:41:59.632Z,25.50
2022-08-16T06:45:04.484Z,25.63
2022-08-16T06:47:53.633Z,25.63
2022-08-16T06:50:28.792Z,25.68
2022-08-16T06:53:08.737Z,25.79
2022-08-16T06:55:43.342Z,25.65
2022-08-16T06:58:21.904Z,25.50
2022-08-16T07:00:59.799Z,25.50
2022-08-16T07:03:32.671Z,25.61
2022-08-16T07:06:26.446Z,25.64
2022-08-16T07:08:59.090Z,25.82
2022-08-16T07:11:48.131Z,25.88
2022-08-16T07:14:31.356Z,25.94
2022-08-16T07:17:03.370Z,26.02
2022-08-16T07:20:02.707Z,25.96
2022-08-16T07:22:39.686Z,26.12
2022-08-16T07:25:20.652Z,26.17
2022-08-16T07:27:52.546Z,26.16
2022-08-16T07:30:39.906Z,26.46
2022-08-16T07:33:52.546Z,26.45
2022-08-16T07:36:22.216Z,26.52
2022-08-16T07:38:53.036Z,26.58
2022-08-16T07:41:24.357Z,26.63
2022-08-16T07:44:01.210Z,26.76
2022-08-16T07:46:38.724Z,26.60
2022-08-16T07:49:35.082Z,26.15
2022-08-16T07:52:18.722Z,26.12
2022-08-16T07:54:55.397Z,26.47
2022-08-16T07:57:26.328Z,26.38
2022-08-16T08:00:00.682Z,26.51
2022-08-16T08:02:33.952Z,26.92
2022-08-16T08:05:03.732Z,26.83
2022-08-16T08:07:32.867Z,26.35
2022-08-16T08:10:16.138Z,26.61
2022-08-16T08:13:02.306Z,26.85
2022-08-16T08:15:34.462Z,27.13
2022-08-16T08:18:29.808Z,27.10
2022-08-16T08:20:59.259Z,27.21
2022-08-16T08:23:37.065Z,26.48
2022-08-16T08:26:17.502Z,26.83
2022-08-16T08:28:49.771Z,26.94
2022-08-16T08:31:20.209Z,26.80
2022-08-16T08:33:56.676Z,26.69
2022-08-16T08:36:32.976Z,27.02
2022-08-16T08:39:12.576Z,27.48
2022-08-16T08:41:46.494Z,27.67
2022-08-16T08:44:27.812Z,28.12
2022-08-16T08:47:02.677Z,28.31
2022-08-16T08:49:46.863Z,28.40
2022-08-16T08:52:33.724Z,28.81
2022-08-16T08:55:10.648Z,28.88
2022-08-16T08:57:43.003Z,28.65
2022-08-16T09:00:26.850Z,28.83
2022-08-16T09:03:04.562Z,28.78
2022-08-16T09:05:42.978Z,29.09
2022-08-16T09:08:13.802Z,29.00
2022-08-16T09:11:02.035Z,28.85
2022-08-16T09:13:35.347Z,28.84
2022-08-16T09:16:05.633Z,29.29
2022-08-16T09:18:36.871Z,29.94
2022-08-16T09:21:09.793Z,29.68
2022-08-16T09:23:39.683Z,29.93
2022-08-16T09:26:45.399Z,29.72
2022-08-16T09:29:15.254Z,29.44
2022-08-16T09:31:53.296Z,29.71
2022-08-16T09:34:23.550Z,28.78
2022-08-16T09:36:58.187Z,29.07
2022-08-16T09:39:41.495Z,29.48
2022-08-16T09:42:11.900Z,29.73
2022-08-16T09:45:11.143Z,29.16
2022-08-16T09:47:57.119Z,28.96
2022-08-16T09:50:25.338Z,28.28
2022-08-16T09:52:56.017Z,28.06
2022-08-16T09:55:27.493Z,28.30
2022-08-16T09:58:00.298Z,28.47
2022-08-16T10:00:44.873Z,28.62
2022-08-16T10:03:14.525Z,28.24
2022-08-16T10:05:44.733Z,27.71
2022-08-16T10:08:26.158Z,27.72
2022-08-16T10:11:13.560Z,27.92
2022-08-16T10:13:44.304Z,27.79
2022-08-16T10:19:01.709Z,28.31
2022-08-16T10:21:36.208Z,28.44
2022-08-16T10:24:11.581Z,28.60
2022-08-16T10:27:19.945Z,28.61
2022-08-16T10:29:59.499Z,28.98
2022-08-16T10:32:33.036Z,29.56
2022-08-16T10:35:03.818Z,29.38
2022-08-16T10:37:36.231Z,29.31
2022-08-16T10:40:28.207Z,28.67
2022-08-16T10:43:01.279Z,28.51
2022-08-16T10:45:36.680Z,28.38
2022-08-16T10:48:28.166Z,28.69
2022-08-16T10:50:58.825Z,29.11
2022-08-16T10:53:33.094Z,29.36
2022-08-16T10:56:55.613Z,29.50
2022-08-16T10:59:29.650Z,29.49
2022-08-16T11:02:21.860Z,29.43
2022-08-16T11:10:20.040Z,29.20
2022-08-16T11:12:52.861Z,29.53
2022-08-16T11:15:22.491Z,29.30
2022-08-16T11:20:48.869Z,29.02
2022-08-16T11:23:18.707Z,29.26
2022-08-16T11:26:16.665Z,29.38
2022-08-16T11:31:29.208Z,29.16
2022-08-16T11:34:01.942Z,29.22
2022-08-16T11:36:31.575Z,29.70
2022-08-16T11:39:02.040Z,29.62
2022-08-16T11:41:33.461Z,30.03
2022-08-16T11:44:04.739Z,30.10
2022-08-16T11:46:45.410Z,30.16
2022-08-16T11:49:15.461Z,30.31
2022-08-16T11:51:45.526Z,30.45
2022-08-16T11:54:21.771Z,30.53
2022-08-16T11:56:56.597Z,30.76
2022-08-16T11:59:29.443Z,31.10
2022-08-16T12:02:00.223Z,31.26
2022-08-16T12:04:51.918Z,30.99
2022-08-16T12:07:23.825Z,30.85
2022-08-16T12:09:54.231Z,30.34
2022-08-16T12:12:24.674Z,30.55
2022-08-16T12:14:59.772Z,30.03
2022-08-16T12:17:32.212Z,29.62
2022-08-16T12:20:01.892Z,29.35
2022-08-16T12:22:36.590Z,29.28
2022-08-16T12:25:06.823Z,29.20
2022-08-16T12:27:39.300Z,28.98
2022-08-16T12:30:19.817Z,28.75
2022-08-16T12:32:57.690Z,28.31
2022-08-16T12:35:29.721Z,28.02
2022-08-16T12:38:00.635Z,27.90
2022-08-16T12:40:41.877Z,27.62
2022-08-16T12:43:14.508Z,27.46
2022-08-16T12:45:48.356Z,27.28
2022-08-16T12:48:37.360Z,27.72
2022-08-16T12:51:19.937Z,27.80
2022-08-16T12:53:55.865Z,27.59
2022-08-16T12:56:28.177Z,27.51
2022-08-16T12:58:59.505Z,27.69
2022-08-16T13:01:33.400Z,28.06
2022-08-16T13:04:12.375Z,28.48
2022-08-16T13:06:51.297Z,28.60
2022-08-16T13:09:26.419Z,28.52
2022-08-16T13:12:03.432Z,28.19
2022-08-16T13:14:38.066Z,27.97
2022-08-16T13:17:17.067Z,27.99
2022-08-16T13:20:08.725Z,28.07
2022-08-16T13:25:13.100Z,28.17
2022-08-16T13:28:01.399Z,28.11
2022-08-16T13:30:41.106Z,27.99
2022-08-16T13:33:17.500Z,27.93
2022-08-16T13:35:56.112Z,27.69
2022-08-16T13:38:37.463Z,27.69
2022-08-16T13:41:08.901Z,28.01
2022-08-16T13:43:39.709Z,28.08
2022-08-16T13:46:10.013Z,28.26
2022-08-16T13:48:44.256Z,28.25
2022-08-16T13:51:17.847Z,28.27
2022-08-16T13:53:49.672Z,28.36
2022-08-16T13:56:35.938Z,28.39
2022-08-16T13:59:20.027Z,28.50
2022-08-16T14:01:55.141Z,28.47
2022-08-16T14:04:29.156Z,28.58
2022-08-16T14:06:59.489Z,28.86
2022-08-16T14:09:30.155Z,28.92
2022-08-16T14:12:09.869Z,28.90
2022-08-16T14:14:54.548Z,28.84
2022-08-16T14:17:27.738Z,28.72
2022-08-16T14:19:59.762Z,28.43
2022-08-16T14:22:35.826Z,28.26
2022-08-16T14:25:16.378Z,28.03
2022-08-16T14:27:45.685Z,27.91
2022-08-16T14:30:17.360Z,27.87
2022-08-16T14:32:49.829Z,27.77
2022-08-16T14:35:29.378Z,27.52
2022-08-16T14:38:06.711Z,27.36
2022-08-16T14:40:35.942Z,27.28
2022-08-16T14:43:07.303Z,27.44
2022-08-16T14:45:37.218Z,27.51
2022-08-16T14:48:07.360Z,27.54
2022-08-16T14:50:38.069Z,27.61
2022-08-16T14:53:10.123Z,27.75
2022-08-16T14:55:41.123Z,27.92
2022-08-16T14:58:18.827Z,27.98
2022-08-16T15:00:50.633Z,28.05
2022-08-16T15:03:21.897Z,27.79
2022-08-16T15:05:54.129Z,27.75
2022-08-16T15:08:36.674Z,27.76
2022-08-16T15:11:07.777Z,27.62
2022-08-16T15:13:37.173Z,27.37
2022-08-16T15:16:07.926Z,27.24
2022-08-16T15:18:37.106Z,27.18
2022-08-16T15:21:10.155Z,26.98
2022-08-16T15:23:40.468Z,26.85
2022-08-16T15:26:18.552Z,26.90
2022-08-16T15:29:00.966Z,27.20
2022-08-16T15:31:30.656Z,27.25
2022-08-16T15:34:01.186Z,27.37
2022-08-16T15:36:31.772Z,27.34
2022-08-16T15:39:07.794Z,27.32
2022-08-16T15:42:05.616Z,27.33
2022-08-16T15:44:51.914Z,27.29
2022-08-16T15:47:25.968Z,26.97
2022-08-16T15:49:56.192Z,26.73
2022-08-16T15:52:30.549Z,26.54
2022-08-16T15:55:07.560Z,26.40
2022-08-16T15:57:53.318Z,26.33
2022-08-16T16:00:22.686Z,26.22
2022-08-16T16:03:05.072Z,26.08
2022-08-16T16:05:39.173Z,25.94
2022-08-16T16:08:11.620Z,25.87
2022-08-16T16:10:54.484Z,25.76
2022-08-16T16:13:25.056Z,25.62
2022-08-16T16:15:56.379Z,25.52
2022-08-16T16:18:30.058Z,25.43
2022-08-16T16:21:02.730Z,25.41
2022-08-16T16:23:35.386Z,25.23
2022-08-16T16:26:10.828Z,25.11
2022-08-16T16:29:06.497Z,24.96
2022-08-16T16:31:32.203Z,24.81
2022-08-16T16:34:05.500Z,24.65
2022-08-16T16:36:35.845Z,24.54
2022-08-16T16:39:08.918Z,24.44
2022-08-16T16:41:40.238Z,24.30
2022-08-16T16:44:11.224Z,24.16
2022-08-16T16:46:56.609Z,24.06
2022-08-16T16:49:27.002Z,23.92
2022-08-16T16:52:06.505Z,23.83
2022-08-16T16:54:37.928Z,23.71
2022-08-16T16:57:26.962Z,23.62
2022-08-16T16:59:56.526Z,23.48
2022-08-16T17:02:41.173Z,23.38
2022-08-16T17:05:14.829Z,23.27
2022-08-16T17:07:43.795Z,23.18
2022-08-16T17:10:14.493Z,23.10
2022-08-16T17:13:05.350Z,23.04
2022-08-16T17:15:36.441Z,22.99
2022-08-16T17:19:15.002Z,22.90
2022-08-16T17:20:54.776Z,22.88
2022-08-16T17:23:59.651Z,22.79
2022-08-16T17:26:15.380Z,22.73
2022-08-16T17:28:58.629Z,22.68
2022-08-16T17:31:38.291Z,22.62
2022-08-16T17:34:28.559Z,22.61
2022-08-16T17:36:59.709Z,22.60
2022-08-16T17:39:29.993Z,22.59
2022-08-16T17:42:02.214Z,22.55
2022-08-16T17:44:31.257Z,22.46
2022-08-16T17:47:00.204Z,22.36
2022-08-16T17:49:29.144Z,22.33
2022-08-16T17:51:58.787Z,22.27
2022-08-16T17:54:30.787Z,22.21
2022-08-16T17:57:02.235Z,22.16
2022-08-16T17:59:31.902Z,22.12
2022-08-16T18:02:42.889Z,22.10
2022-08-16T18:04:56.843Z,22.13
2022-08-16T18:07:26.312Z,22.09
2022-08-16T18:09:55.573Z,22.03
2022-08-16T18:12:50.702Z,22.00
2022-08-16T18:15:18.327Z,21.97
2022-08-16T18:17:48.597Z,21.98
2022-08-16T18:20:31.566Z,21.95
2022-08-16T18:23:07.097Z,21.90
2022-08-16T18:25:37.025Z,21.92
2022-08-16T18:28:07.968Z,21.90
2022-08-16T18:30:37.712Z,21.83
2022-08-16T18:33:09.934Z,21.77
2022-08-16T18:35:39.517Z,21.73
2022-08-16T18:38:08.860Z,21.68
2022-08-16T18:40:38.092Z,21.61
2022-08-16T18:43:11.963Z,21.55
2022-08-16T18:45:43.319Z,21.51
2022-08-16T18:48:14.702Z,21.42
2022-08-16T18:51:04.561Z,21.40
2022-08-16T18:53:36.654Z,21.41
2022-08-16T18:56:07.720Z,21.38
2022-08-16T18:58:39.383Z,21.38
2022-08-16T19:01:08.729Z,21.38
2022-08-16T19:03:38.167Z,21.31
2022-08-16T19:06:11.990Z,21.27
2022-08-16T19:08:44.567Z,21.15
2022-08-16T19:11:19.055Z,21.08
2022-08-16T19:13:50.112Z,20.99
2022-08-16T19:16:19.614Z,20.97
2022-08-16T19:18:51.463Z,21.01
2022-08-16T19:21:20.676Z,21.02
2022-08-16T19:23:50.147Z,21.05
2022-08-16T19:26:24.781Z,21.03
2022-08-16T19:28:59.869Z,20.99
2022-08-16T19:31:35.445Z,20.92
2022-08-16T19:34:05.973Z,20.84
2022-08-16T19:36:37.448Z,20.79
2022-08-16T19:39:09.271Z,20.74
2022-08-16T19:41:40.517Z,20.68
2022-08-16T19:44:11.794Z,20.64
2022-08-16T19:46:43.614Z,20.61
2022-08-16T19:49:16.014Z,20.63
2022-08-16T19:51:45.889Z,20.64
2022-08-16T19:54:15.043Z,20.61
2022-08-16T19:56:44.076Z,20.55
2022-08-16T19:59:19.471Z,20.57
2022-08-16T20:01:52.443Z,20.53
2022-08-16T20:04:23.083Z,20.55
2022-08-16T20:06:52.850Z,20.53
2022-08-16T20:09:22.350Z,20.47
2022-08-16T20:11:53.306Z,20.41
2022-08-16T20:14:26.436Z,20.37
2022-08-16T20:16:57.785Z,20.31
2022-08-16T20:19:28.573Z,20.29
2022-08-16T20:22:02.013Z,20.29
2022-08-16T20:24:35.754Z,20.24
2022-08-16T20:27:07.655Z,20.29
2022-08-16T20:29:40.546Z,20.24
2022-08-16T20:32:12.979Z,20.18
2022-08-16T20:34:42.722Z,20.17
2022-08-16T20:37:12.994Z,20.14
2022-08-16T20:39:44.350Z,20.11
2022-08-16T20:42:15.293Z,20.09
2022-08-16T20:44:45.974Z,20.05
2022-08-16T20:47:15.903Z,20.04
2022-08-16T20:49:44.973Z,19.99
2022-08-16T20:52:15.983Z,19.94
2022-08-16T20:54:46.709Z,19.89
2022-08-16T20:57:17.713Z,19.86
2022-08-16T20:59:50.326Z,19.86
2022-08-16T21:02:25.276Z,19.90
2022-08-16T21:04:54.314Z,19.87
2022-08-16T21:07:23.289Z,19.92
2022-08-16T21:09:52.283Z,19.88
2022-08-16T21:12:21.206Z,19.83
2022-08-16T21:14:51.832Z,19.78
2022-08-16T21:17:20.984Z,19.79
2022-08-16T21:19:49.932Z,19.76
2022-08-16T21:22:22.121Z,19.78
2022-08-16T21:24:53.809Z,19.72
2022-08-16T21:27:23.665Z,19.63
2022-08-16T21:29:55.774Z,19.63
2022-08-16T21:32:35.454Z,19.57
2022-08-16T21:35:09.352Z,19.59
2022-08-16T21:37:38.656Z,19.60
2022-08-16T21:40:09.849Z,19.57
2022-08-16T21:42:42.013Z,19.53
2022-08-16T21:45:14.851Z,19.49
2022-08-16T21:47:44.734Z,19.43
2022-08-16T21:50:15.431Z,19.42
2022-08-16T21:52:44.371Z,19.37
2022-08-16T21:55:13.508Z,19.36
2022-08-16T21:57:42.577Z,19.36
2022-08-16T22:00:15.072Z,19.30
2022-08-16T22:02:47.884Z,19.26
2022-08-16T22:05:19.568Z,19.21
2022-08-16T22:07:48.580Z,19.23
2022-08-16T22:11:06.113Z,19.26
2022-08-16T22:13:17.882Z,19.24
2022-08-16T22:15:49.424Z,19.19
2022-08-16T22:18:19.177Z,19.14
2022-08-16T22:20:48.863Z,19.10
2022-08-16T22:23:22.070Z,19.07
2022-08-16T22:25:52.881Z,19.09
2022-08-16T22:28:23.164Z,19.00
2022-08-16T22:30:53.993Z,19.03
2022-08-16T22:33:25.591Z,18.96
2022-08-16T22:36:00.162Z,18.97
2022-08-16T22:38:54.098Z,18.98
2022-08-16T22:41:19.032Z,18.93
2022-08-16T22:43:51.153Z,18.92
2022-08-16T22:46:21.590Z,18.94
2022-08-16T22:48:51.235Z,18.90
2022-08-16T22:51:21.520Z,18.90
2022-08-16T22:53:50.743Z,18.83
2022-08-16T22:56:19.836Z,18.79
2022-08-16T22:58:49.213Z,18.76
2022-08-16T23:01:20.148Z,18.77
2022-08-16T23:03:50.907Z,18.73
2022-08-16T23:06:19.853Z,18.70
2022-08-16T23:08:48.774Z,18.68
2022-08-16T23:11:21.312Z,18.62
2022-08-16T23:13:53.756Z,18.58
2022-08-16T23:16:33.197Z,18.60
2022-08-16T23:19:07.570Z,18.59
2022-08-16T23:21:38.062Z,18.56
2022-08-16T23:24:08.204Z,18.55
2022-08-16T23:26:45.798Z,18.57
2022-08-16T23:29:24.715Z,18.55
2022-08-16T23:31:57.987Z,18.52
2022-08-16T23:34:29.647Z,18.42
2022-08-16T23:36:58.922Z,18.41
2022-08-16T23:39:28.355Z,18.42
2022-08-16T23:41:57.369Z,18.34
2022-08-16T23:44:55.214Z,18.31
2022-08-16T23:47:15.345Z,18.30
2022-08-16T23:50:00.428Z,18.25
2022-08-16T23:52:42.264Z,18.30
2022-08-16T23:55:21.978Z,18.22
2022-08-16T23:57:52.090Z,18.21
